sensor_id;sensor_type;location;lat;lon;timestamp;P1;durP1;ratioP1;P2;durP2;ratioP2
32365;SDS011;18837;46.832;16.838;2022-10-23T00:01:24;8.27;;;7.47;;
32365;SDS011;18837;46.832;16.838;2022-10-23T00:03:53;8.63;;;7.83;;
32365;SDS011;18837;46.832;16.838;2022-10-23T00:06:38;8.17;;;7.23;;
32365;SDS011;18837;46.832;16.838;2022-10-23T00:09:05;8.47;;;7.27;;
32365;SDS011;18837;46.832;16.838;2022-10-23T00:11:32;8.30;;;7.13;;
32365;SDS011;18837;46.832;16.838;2022-10-23T00:14:00;7.97;;;7.17;;
32365;SDS011;18837;46.832;16.838;2022-10-23T00:16:28;7.67;;;6.90;;
32365;SDS011;18837;46.832;16.838;2022-10-23T00:18:54;8.90;;;7.43;;
32365;SDS011;18837;46.832;16.838;2022-10-23T00:21:19;8.80;;;7.90;;
32365;SDS011;18837;46.832;16.838;2022-10-23T00:23:45;8.13;;;7.33;;
32365;SDS011;18837;46.832;16.838;2022-10-23T00:26:11;8.27;;;7.40;;
32365;SDS011;18837;46.832;16.838;2022-10-23T00:28:42;9.13;;;7.60;;
32365;SDS011;18837;46.832;16.838;2022-10-23T00:31:09;8.00;;;7.20;;
32365;SDS011;18837;46.832;16.838;2022-10-23T00:33:35;8.13;;;7.30;;
32365;SDS011;18837;46.832;16.838;2022-10-23T00:36:03;8.53;;;7.53;;
32365;SDS011;18837;46.832;16.838;2022-10-23T00:38:30;8.97;;;7.23;;
32365;SDS011;18837;46.832;16.838;2022-10-23T00:40:55;8.63;;;6.57;;
32365;SDS011;18837;46.832;16.838;2022-10-23T00:43:23;8.27;;;7.20;;
32365;SDS011;18837;46.832;16.838;2022-10-23T00:45:50;8.30;;;7.27;;
32365;SDS011;18837;46.832;16.838;2022-10-23T00:48:16;7.97;;;6.77;;
32365;SDS011;18837;46.832;16.838;2022-10-23T00:50:43;9.73;;;7.00;;
32365;SDS011;18837;46.832;16.838;2022-10-23T00:53:10;9.90;;;6.97;;
32365;SDS011;18837;46.832;16.838;2022-10-23T00:55:38;8.50;;;6.70;;
32365;SDS011;18837;46.832;16.838;2022-10-23T00:58:10;8.53;;;6.53;;
32365;SDS011;18837;46.832;16.838;2022-10-23T01:00:48;8.90;;;6.70;;
32365;SDS011;18837;46.832;16.838;2022-10-23T01:03:19;7.53;;;6.53;;
32365;SDS011;18837;46.832;16.838;2022-10-23T01:05:48;8.37;;;6.93;;
32365;SDS011;18837;46.832;16.838;2022-10-23T01:08:17;8.23;;;6.50;;
32365;SDS011;18837;46.832;16.838;2022-10-23T01:16:50;8.43;;;6.70;;
32365;SDS011;18837;46.832;16.838;2022-10-23T01:22:45;9.90;;;7.03;;
32365;SDS011;18837;46.832;16.838;2022-10-23T01:28:10;8.80;;;7.20;;
32365;SDS011;18837;46.832;16.838;2022-10-23T01:30:42;8.23;;;6.47;;
32365;SDS011;18837;46.832;16.838;2022-10-23T01:33:10;9.33;;;6.47;;
32365;SDS011;18837;46.832;16.838;2022-10-23T01:35:40;8.17;;;5.97;;
32365;SDS011;18837;46.832;16.838;2022-10-23T01:38:13;9.33;;;6.63;;
32365;SDS011;18837;46.832;16.838;2022-10-23T01:40:55;7.73;;;5.83;;
32365;SDS011;18837;46.832;16.838;2022-10-23T01:43:33;6.43;;;5.77;;
32365;SDS011;18837;46.832;16.838;2022-10-23T01:46:24;7.03;;;5.73;;
32365;SDS011;18837;46.832;16.838;2022-10-23T01:48:52;7.43;;;6.00;;
32365;SDS011;18837;46.832;16.838;2022-10-23T01:51:19;8.07;;;5.70;;
32365;SDS011;18837;46.832;16.838;2022-10-23T01:53:51;8.87;;;6.63;;
32365;SDS011;18837;46.832;16.838;2022-10-23T01:56:25;7.73;;;5.80;;
32365;SDS011;18837;46.832;16.838;2022-10-23T01:58:57;7.80;;;5.70;;
32365;SDS011;18837;46.832;16.838;2022-10-23T02:01:27;6.33;;;5.40;;
32365;SDS011;18837;46.832;16.838;2022-10-23T02:03:55;6.30;;;5.20;;
32365;SDS011;18837;46.832;16.838;2022-10-23T02:06:22;7.93;;;5.80;;
32365;SDS011;18837;46.832;16.838;2022-10-23T02:08:48;6.23;;;5.40;;
32365;SDS011;18837;46.832;16.838;2022-10-23T02:11:17;8.70;;;5.90;;
32365;SDS011;18837;46.832;16.838;2022-10-23T02:16:53;7.33;;;5.50;;
32365;SDS011;18837;46.832;16.838;2022-10-23T02:25:08;7.87;;;5.13;;
32365;SDS011;18837;46.832;16.838;2022-10-23T02:27:49;6.37;;;4.53;;
32365;SDS011;18837;46.832;16.838;2022-10-23T02:30:18;6.50;;;5.33;;
32365;SDS011;18837;46.832;16.838;2022-10-23T02:32:48;7.60;;;5.50;;
32365;SDS011;18837;46.832;16.838;2022-10-23T02:35:18;5.37;;;4.57;;
32365;SDS011;18837;46.832;16.838;2022-10-23T02:37:53;6.83;;;5.57;;
32365;SDS011;18837;46.832;16.838;2022-10-23T02:40:21;6.40;;;5.20;;
32365;SDS011;18837;46.832;16.838;2022-10-23T02:42:51;6.50;;;5.23;;
32365;SDS011;18837;46.832;16.838;2022-10-23T02:48:06;5.90;;;5.13;;
32365;SDS011;18837;46.832;16.838;2022-10-23T02:50:50;7.20;;;5.13;;
32365;SDS011;18837;46.832;16.838;2022-10-23T02:55:55;5.00;;;4.30;;
32365;SDS011;18837;46.832;16.838;2022-10-23T03:01:10;6.40;;;5.37;;
32365;SDS011;18837;46.832;16.838;2022-10-23T03:03:49;5.43;;;4.87;;
32365;SDS011;18837;46.832;16.838;2022-10-23T03:06:18;4.80;;;4.27;;
32365;SDS011;18837;46.832;16.838;2022-10-23T03:08:59;6.17;;;4.50;;
32365;SDS011;18837;46.832;16.838;2022-10-23T03:11:29;7.33;;;4.70;;
32365;SDS011;18837;46.832;16.838;2022-10-23T03:13:55;6.37;;;4.30;;
32365;SDS011;18837;46.832;16.838;2022-10-23T03:16:21;5.17;;;4.30;;
32365;SDS011;18837;46.832;16.838;2022-10-23T03:18:47;5.37;;;4.20;;
32365;SDS011;18837;46.832;16.838;2022-10-23T03:21:12;5.00;;;4.20;;
32365;SDS011;18837;46.832;16.838;2022-10-23T03:23:38;5.67;;;4.83;;
32365;SDS011;18837;46.832;16.838;2022-10-23T03:26:04;5.37;;;4.20;;
32365;SDS011;18837;46.832;16.838;2022-10-23T03:28:30;6.73;;;4.80;;
32365;SDS011;18837;46.832;16.838;2022-10-23T03:30:55;6.00;;;4.80;;
32365;SDS011;18837;46.832;16.838;2022-10-23T03:33:21;6.10;;;4.73;;
32365;SDS011;18837;46.832;16.838;2022-10-23T03:35:50;6.83;;;5.20;;
32365;SDS011;18837;46.832;16.838;2022-10-23T03:38:19;6.33;;;4.83;;
32365;SDS011;18837;46.832;16.838;2022-10-23T03:40:48;7.10;;;5.20;;
32365;SDS011;18837;46.832;16.838;2022-10-23T03:43:14;6.17;;;5.03;;
32365;SDS011;18837;46.832;16.838;2022-10-23T03:45:40;8.80;;;6.13;;
32365;SDS011;18837;46.832;16.838;2022-10-23T03:48:06;8.80;;;6.47;;
32365;SDS011;18837;46.832;16.838;2022-10-23T03:50:32;8.77;;;6.50;;
32365;SDS011;18837;46.832;16.838;2022-10-23T03:52:59;7.13;;;6.07;;
32365;SDS011;18837;46.832;16.838;2022-10-23T03:55:27;9.57;;;6.77;;
32365;SDS011;18837;46.832;16.838;2022-10-23T03:57:53;9.67;;;6.43;;
32365;SDS011;18837;46.832;16.838;2022-10-23T04:00:19;10.07;;;7.33;;
32365;SDS011;18837;46.832;16.838;2022-10-23T04:02:45;8.07;;;6.13;;
32365;SDS011;18837;46.832;16.838;2022-10-23T04:05:11;8.53;;;6.43;;
32365;SDS011;18837;46.832;16.838;2022-10-23T04:07:37;9.47;;;6.27;;
32365;SDS011;18837;46.832;16.838;2022-10-23T04:10:04;8.53;;;6.80;;
32365;SDS011;18837;46.832;16.838;2022-10-23T04:12:31;8.07;;;6.17;;
32365;SDS011;18837;46.832;16.838;2022-10-23T04:14:58;7.67;;;6.27;;
32365;SDS011;18837;46.832;16.838;2022-10-23T04:17:23;8.33;;;6.60;;
32365;SDS011;18837;46.832;16.838;2022-10-23T04:19:49;7.77;;;6.13;;
32365;SDS011;18837;46.832;16.838;2022-10-23T04:22:15;8.77;;;6.13;;
32365;SDS011;18837;46.832;16.838;2022-10-23T04:24:41;8.90;;;6.43;;
32365;SDS011;18837;46.832;16.838;2022-10-23T04:27:10;9.17;;;6.30;;
32365;SDS011;18837;46.832;16.838;2022-10-23T04:29:36;7.97;;;6.07;;
32365;SDS011;18837;46.832;16.838;2022-10-23T04:32:02;9.07;;;6.43;;
32365;SDS011;18837;46.832;16.838;2022-10-23T04:34:28;7.87;;;6.07;;
32365;SDS011;18837;46.832;16.838;2022-10-23T04:36:53;8.20;;;6.17;;
32365;SDS011;18837;46.832;16.838;2022-10-23T04:39:19;7.90;;;5.63;;
32365;SDS011;18837;46.832;16.838;2022-10-23T04:41:45;8.87;;;6.00;;
32365;SDS011;18837;46.832;16.838;2022-10-23T04:44:11;7.17;;;5.93;;
32365;SDS011;18837;46.832;16.838;2022-10-23T04:46:42;8.70;;;6.43;;
32365;SDS011;18837;46.832;16.838;2022-10-23T04:49:08;6.70;;;5.17;;
32365;SDS011;18837;46.832;16.838;2022-10-23T04:51:34;7.13;;;5.57;;
32365;SDS011;18837;46.832;16.838;2022-10-23T04:54:02;7.13;;;5.20;;
32365;SDS011;18837;46.832;16.838;2022-10-23T04:56:27;7.47;;;5.63;;
32365;SDS011;18837;46.832;16.838;2022-10-23T04:58:53;5.80;;;5.20;;
32365;SDS011;18837;46.832;16.838;2022-10-23T05:01:19;6.50;;;5.20;;
32365;SDS011;18837;46.832;16.838;2022-10-23T05:03:46;7.63;;;5.63;;
32365;SDS011;18837;46.832;16.838;2022-10-23T05:06:12;6.63;;;5.20;;
32365;SDS011;18837;46.832;16.838;2022-10-23T05:08:37;6.93;;;5.43;;
32365;SDS011;18837;46.832;16.838;2022-10-23T05:11:03;7.40;;;5.60;;
32365;SDS011;18837;46.832;16.838;2022-10-23T05:13:29;7.43;;;5.43;;
32365;SDS011;18837;46.832;16.838;2022-10-23T05:15:56;5.57;;;4.90;;
32365;SDS011;18837;46.832;16.838;2022-10-23T05:18:28;6.10;;;4.60;;
32365;SDS011;18837;46.832;16.838;2022-10-23T05:21:02;9.27;;;4.90;;
32365;SDS011;18837;46.832;16.838;2022-10-23T05:23:46;5.83;;;4.80;;
32365;SDS011;18837;46.832;16.838;2022-10-23T05:26:12;6.13;;;4.50;;
32365;SDS011;18837;46.832;16.838;2022-10-23T05:28:38;4.87;;;4.40;;
32365;SDS011;18837;46.832;16.838;2022-10-23T05:31:04;5.63;;;4.87;;
32365;SDS011;18837;46.832;16.838;2022-10-23T05:33:32;6.40;;;5.33;;
32365;SDS011;18837;46.832;16.838;2022-10-23T05:36:00;7.30;;;5.20;;
32365;SDS011;18837;46.832;16.838;2022-10-23T05:38:27;6.67;;;5.20;;
32365;SDS011;18837;46.832;16.838;2022-10-23T05:40:56;6.00;;;4.90;;
32365;SDS011;18837;46.832;16.838;2022-10-23T05:43:22;6.13;;;4.80;;
32365;SDS011;18837;46.832;16.838;2022-10-23T05:45:50;5.80;;;4.67;;
32365;SDS011;18837;46.832;16.838;2022-10-23T05:48:16;5.47;;;4.90;;
32365;SDS011;18837;46.832;16.838;2022-10-23T05:50:42;5.07;;;4.30;;
32365;SDS011;18837;46.832;16.838;2022-10-23T05:53:11;6.07;;;4.53;;
32365;SDS011;18837;46.832;16.838;2022-10-23T05:55:36;5.23;;;4.27;;
32365;SDS011;18837;46.832;16.838;2022-10-23T05:58:04;5.23;;;4.17;;
32365;SDS011;18837;46.832;16.838;2022-10-23T06:00:29;5.33;;;4.20;;
32365;SDS011;18837;46.832;16.838;2022-10-23T06:02:58;5.43;;;4.53;;
32365;SDS011;18837;46.832;16.838;2022-10-23T06:05:24;5.00;;;4.37;;
32365;SDS011;18837;46.832;16.838;2022-10-23T06:07:50;5.30;;;3.87;;
32365;SDS011;18837;46.832;16.838;2022-10-23T06:10:19;5.37;;;4.17;;
32365;SDS011;18837;46.832;16.838;2022-10-23T06:12:47;5.17;;;3.90;;
32365;SDS011;18837;46.832;16.838;2022-10-23T06:15:13;4.27;;;3.50;;
32365;SDS011;18837;46.832;16.838;2022-10-23T06:17:39;4.40;;;3.83;;
32365;SDS011;18837;46.832;16.838;2022-10-23T06:20:04;4.40;;;3.53;;
32365;SDS011;18837;46.832;16.838;2022-10-23T06:22:31;4.20;;;3.50;;
32365;SDS011;18837;46.832;16.838;2022-10-23T06:24:57;3.90;;;3.40;;
32365;SDS011;18837;46.832;16.838;2022-10-23T06:27:23;4.80;;;3.80;;
32365;SDS011;18837;46.832;16.838;2022-10-23T06:29:48;3.77;;;3.37;;
32365;SDS011;18837;46.832;16.838;2022-10-23T06:32:14;3.80;;;3.40;;
32365;SDS011;18837;46.832;16.838;2022-10-23T06:34:40;4.57;;;3.30;;
32365;SDS011;18837;46.832;16.838;2022-10-23T06:37:06;3.50;;;3.20;;
32365;SDS011;18837;46.832;16.838;2022-10-23T06:39:31;3.77;;;3.37;;
32365;SDS011;18837;46.832;16.838;2022-10-23T06:41:57;3.37;;;3.07;;
32365;SDS011;18837;46.832;16.838;2022-10-23T06:44:23;3.87;;;2.80;;
32365;SDS011;18837;46.832;16.838;2022-10-23T06:46:49;3.33;;;2.93;;
32365;SDS011;18837;46.832;16.838;2022-10-23T06:49:16;3.90;;;3.00;;
32365;SDS011;18837;46.832;16.838;2022-10-23T06:51:42;3.50;;;3.20;;
32365;SDS011;18837;46.832;16.838;2022-10-23T06:54:09;3.47;;;2.50;;
32365;SDS011;18837;46.832;16.838;2022-10-23T06:56:35;3.07;;;2.63;;
32365;SDS011;18837;46.832;16.838;2022-10-23T06:59:01;3.37;;;3.07;;
32365;SDS011;18837;46.832;16.838;2022-10-23T07:01:27;3.27;;;2.90;;
32365;SDS011;18837;46.832;16.838;2022-10-23T07:03:53;3.33;;;2.77;;
32365;SDS011;18837;46.832;16.838;2022-10-23T07:06:18;3.23;;;2.73;;
32365;SDS011;18837;46.832;16.838;2022-10-23T07:08:47;3.13;;;2.83;;
32365;SDS011;18837;46.832;16.838;2022-10-23T07:11:13;2.87;;;2.67;;
32365;SDS011;18837;46.832;16.838;2022-10-23T07:13:39;3.20;;;2.80;;
32365;SDS011;18837;46.832;16.838;2022-10-23T07:16:13;3.10;;;2.60;;
32365;SDS011;18837;46.832;16.838;2022-10-23T07:18:42;2.50;;;2.30;;
32365;SDS011;18837;46.832;16.838;2022-10-23T07:21:09;2.90;;;2.23;;
32365;SDS011;18837;46.832;16.838;2022-10-23T07:23:36;2.70;;;2.40;;
32365;SDS011;18837;46.832;16.838;2022-10-23T07:26:09;2.60;;;2.40;;
32365;SDS011;18837;46.832;16.838;2022-10-23T07:28:40;2.50;;;2.30;;
32365;SDS011;18837;46.832;16.838;2022-10-23T07:31:07;2.60;;;2.40;;
32365;SDS011;18837;46.832;16.838;2022-10-23T07:33:33;2.40;;;2.20;;
32365;SDS011;18837;46.832;16.838;2022-10-23T07:35:59;2.93;;;2.40;;
32365;SDS011;18837;46.832;16.838;2022-10-23T07:38:33;2.50;;;2.30;;
32365;SDS011;18837;46.832;16.838;2022-10-23T07:40:59;2.20;;;2.00;;
32365;SDS011;18837;46.832;16.838;2022-10-23T07:43:25;2.50;;;2.30;;
32365;SDS011;18837;46.832;16.838;2022-10-23T07:45:52;2.30;;;2.00;;
32365;SDS011;18837;46.832;16.838;2022-10-23T07:48:18;2.40;;;2.20;;
32365;SDS011;18837;46.832;16.838;2022-10-23T07:50:45;2.33;;;2.13;;
32365;SDS011;18837;46.832;16.838;2022-10-23T07:53:18;2.23;;;2.03;;
32365;SDS011;18837;46.832;16.838;2022-10-23T07:55:59;2.30;;;2.10;;
32365;SDS011;18837;46.832;16.838;2022-10-23T07:58:27;3.00;;;2.23;;
32365;SDS011;18837;46.832;16.838;2022-10-23T08:00:58;2.50;;;2.30;;
32365;SDS011;18837;46.832;16.838;2022-10-23T08:03:26;3.43;;;2.20;;
32365;SDS011;18837;46.832;16.838;2022-10-23T08:05:53;2.17;;;1.80;;
32365;SDS011;18837;46.832;16.838;2022-10-23T08:08:20;2.57;;;2.07;;
32365;SDS011;18837;46.832;16.838;2022-10-23T08:10:47;2.20;;;2.00;;
32365;SDS011;18837;46.832;16.838;2022-10-23T08:13:20;2.70;;;2.20;;
32365;SDS011;18837;46.832;16.838;2022-10-23T08:15:50;3.20;;;2.90;;
32365;SDS011;18837;46.832;16.838;2022-10-23T08:18:16;3.60;;;2.93;;
32365;SDS011;18837;46.832;16.838;2022-10-23T08:20:43;3.07;;;2.50;;
32365;SDS011;18837;46.832;16.838;2022-10-23T08:23:11;2.47;;;2.27;;
32365;SDS011;18837;46.832;16.838;2022-10-23T08:25:37;3.07;;;2.40;;
32365;SDS011;18837;46.832;16.838;2022-10-23T08:28:04;2.50;;;2.30;;
32365;SDS011;18837;46.832;16.838;2022-10-23T08:30:34;2.60;;;2.40;;
32365;SDS011;18837;46.832;16.838;2022-10-23T08:33:06;2.40;;;2.17;;
32365;SDS011;18837;46.832;16.838;2022-10-23T08:35:36;3.43;;;2.00;;
32365;SDS011;18837;46.832;16.838;2022-10-23T08:38:02;3.30;;;2.40;;
32365;SDS011;18837;46.832;16.838;2022-10-23T08:40:29;2.10;;;2.00;;
32365;SDS011;18837;46.832;16.838;2022-10-23T08:43:00;2.70;;;2.00;;
32365;SDS011;18837;46.832;16.838;2022-10-23T08:53:35;1.80;;;1.70;;
32365;SDS011;18837;46.832;16.838;2022-10-23T09:04:52;2.20;;;2.00;;
32365;SDS011;18837;46.832;16.838;2022-10-23T09:12:41;2.30;;;1.97;;
32365;SDS011;18837;46.832;16.838;2022-10-23T09:15:26;1.90;;;1.70;;
32365;SDS011;18837;46.832;16.838;2022-10-23T09:17:57;1.73;;;1.63;;
32365;SDS011;18837;46.832;16.838;2022-10-23T09:20:32;2.10;;;1.90;;
32365;SDS011;18837;46.832;16.838;2022-10-23T09:23:43;2.40;;;2.03;;
32365;SDS011;18837;46.832;16.838;2022-10-23T09:25:50;1.73;;;1.53;;
32365;SDS011;18837;46.832;16.838;2022-10-23T09:28:25;2.20;;;2.00;;
32365;SDS011;18837;46.832;16.838;2022-10-23T09:31:04;2.00;;;1.80;;
32365;SDS011;18837;46.832;16.838;2022-10-23T09:33:33;2.00;;;1.80;;
32365;SDS011;18837;46.832;16.838;2022-10-23T09:36:14;2.00;;;1.77;;
32365;SDS011;18837;46.832;16.838;2022-10-23T09:46:42;2.10;;;1.90;;
32365;SDS011;18837;46.832;16.838;2022-10-23T09:49:20;1.87;;;1.57;;
32365;SDS011;18837;46.832;16.838;2022-10-23T09:54:50;2.50;;;1.73;;
32365;SDS011;18837;46.832;16.838;2022-10-23T10:00:24;2.43;;;2.20;;
32365;SDS011;18837;46.832;16.838;2022-10-23T10:02:57;2.17;;;1.97;;
32365;SDS011;18837;46.832;16.838;2022-10-23T10:05:29;2.27;;;2.07;;
32365;SDS011;18837;46.832;16.838;2022-10-23T10:08:11;2.27;;;2.00;;
32365;SDS011;18837;46.832;16.838;2022-10-23T10:11:08;2.87;;;2.30;;
32365;SDS011;18837;46.832;16.838;2022-10-23T10:13:44;1.70;;;1.60;;
32365;SDS011;18837;46.832;16.838;2022-10-23T10:16:52;2.40;;;2.20;;
32365;SDS011;18837;46.832;16.838;2022-10-23T10:22:23;2.23;;;2.03;;
32365;SDS011;18837;46.832;16.838;2022-10-23T10:27:55;2.50;;;2.00;;
32365;SDS011;18837;46.832;16.838;2022-10-23T10:30:26;2.70;;;2.37;;
32365;SDS011;18837;46.832;16.838;2022-10-23T10:36:38;2.90;;;2.70;;
32365;SDS011;18837;46.832;16.838;2022-10-23T10:39:30;2.83;;;2.57;;
32365;SDS011;18837;46.832;16.838;2022-10-23T10:42:13;2.80;;;2.50;;
32365;SDS011;18837;46.832;16.838;2022-10-23T10:54:06;2.67;;;2.47;;
32365;SDS011;18837;46.832;16.838;2022-10-23T10:56:53;3.00;;;2.50;;
32365;SDS011;18837;46.832;16.838;2022-10-23T10:59:23;2.63;;;2.43;;
32365;SDS011;18837;46.832;16.838;2022-10-23T11:02:01;2.00;;;1.80;;
32365;SDS011;18837;46.832;16.838;2022-10-23T11:10:58;8.63;;;2.80;;
32365;SDS011;18837;46.832;16.838;2022-10-23T11:16:15;8.33;;;7.40;;
32365;SDS011;18837;46.832;16.838;2022-10-23T11:18:54;12.87;;;5.80;;
32365;SDS011;18837;46.832;16.838;2022-10-23T11:21:45;7.77;;;4.10;;
32365;SDS011;18837;46.832;16.838;2022-10-23T11:27:20;6.80;;;4.03;;
32365;SDS011;18837;46.832;16.838;2022-10-23T11:30:20;7.37;;;4.07;;
32365;SDS011;18837;46.832;16.838;2022-10-23T11:33:03;6.53;;;3.87;;
32365;SDS011;18837;46.832;16.838;2022-10-23T11:36:10;4.70;;;3.50;;
32365;SDS011;18837;46.832;16.838;2022-10-23T11:38:48;3.90;;;3.47;;
32365;SDS011;18837;46.832;16.838;2022-10-23T11:41:29;4.80;;;3.40;;
32365;SDS011;18837;46.832;16.838;2022-10-23T11:47:28;4.53;;;3.13;;
32365;SDS011;18837;46.832;16.838;2022-10-23T11:52:32;3.90;;;3.30;;
32365;SDS011;18837;46.832;16.838;2022-10-23T11:55:03;5.37;;;3.87;;
32365;SDS011;18837;46.832;16.838;2022-10-23T12:00:52;3.63;;;3.00;;
32365;SDS011;18837;46.832;16.838;2022-10-23T12:03:22;3.90;;;2.97;;
32365;SDS011;18837;46.832;16.838;2022-10-23T12:06:04;3.73;;;3.07;;
32365;SDS011;18837;46.832;16.838;2022-10-23T12:08:32;3.27;;;2.83;;
32365;SDS011;18837;46.832;16.838;2022-10-23T12:11:02;3.93;;;3.10;;
32365;SDS011;18837;46.832;16.838;2022-10-23T12:16:12;3.30;;;3.00;;
32365;SDS011;18837;46.832;16.838;2022-10-23T12:19:16;3.10;;;2.80;;
32365;SDS011;18837;46.832;16.838;2022-10-23T12:21:43;3.10;;;2.80;;
32365;SDS011;18837;46.832;16.838;2022-10-23T12:35:23;2.93;;;2.73;;
32365;SDS011;18837;46.832;16.838;2022-10-23T12:38:14;3.60;;;2.70;;
32365;SDS011;18837;46.832;16.838;2022-10-23T12:40:44;4.13;;;2.87;;
32365;SDS011;18837;46.832;16.838;2022-10-23T12:43:23;3.37;;;3.07;;
32365;SDS011;18837;46.832;16.838;2022-10-23T12:45:54;3.63;;;2.87;;
32365;SDS011;18837;46.832;16.838;2022-10-23T12:48:31;3.80;;;2.60;;
32365;SDS011;18837;46.832;16.838;2022-10-23T12:51:14;3.77;;;2.67;;
32365;SDS011;18837;46.832;16.838;2022-10-23T12:53:49;3.47;;;2.57;;
32365;SDS011;18837;46.832;16.838;2022-10-23T12:56:15;3.83;;;3.00;;
32365;SDS011;18837;46.832;16.838;2022-10-23T12:59:16;3.37;;;2.57;;
32365;SDS011;18837;46.832;16.838;2022-10-23T13:01:42;3.03;;;2.73;;
32365;SDS011;18837;46.832;16.838;2022-10-23T13:04:16;2.90;;;2.53;;
32365;SDS011;18837;46.832;16.838;2022-10-23T13:31:34;2.83;;;2.60;;
32365;SDS011;18837;46.832;16.838;2022-10-23T13:36:26;4.27;;;3.17;;
32365;SDS011;18837;46.832;16.838;2022-10-23T13:41:41;3.00;;;2.80;;
32365;SDS011;18837;46.832;16.838;2022-10-23T13:44:10;3.87;;;2.93;;
32365;SDS011;18837;46.832;16.838;2022-10-23T13:46:37;3.00;;;2.70;;
32365;SDS011;18837;46.832;16.838;2022-10-23T13:49:03;3.60;;;2.93;;
32365;SDS011;18837;46.832;16.838;2022-10-23T13:51:29;3.13;;;2.83;;
32365;SDS011;18837;46.832;16.838;2022-10-23T13:53:58;2.83;;;2.60;;
32365;SDS011;18837;46.832;16.838;2022-10-23T13:56:25;3.93;;;2.80;;
32365;SDS011;18837;46.832;16.838;2022-10-23T14:01:49;2.80;;;2.60;;
32365;SDS011;18837;46.832;16.838;2022-10-23T14:04:15;3.80;;;2.90;;
32365;SDS011;18837;46.832;16.838;2022-10-23T14:06:42;3.73;;;3.10;;
32365;SDS011;18837;46.832;16.838;2022-10-23T14:09:13;2.67;;;2.47;;
32365;SDS011;18837;46.832;16.838;2022-10-23T14:11:40;3.10;;;2.80;;
32365;SDS011;18837;46.832;16.838;2022-10-23T14:14:06;2.40;;;2.20;;
32365;SDS011;18837;46.832;16.838;2022-10-23T14:16:44;3.27;;;2.70;;
32365;SDS011;18837;46.832;16.838;2022-10-23T14:19:10;3.00;;;2.80;;
32365;SDS011;18837;46.832;16.838;2022-10-23T14:21:35;3.40;;;3.10;;
32365;SDS011;18837;46.832;16.838;2022-10-23T14:24:01;3.63;;;3.23;;
32365;SDS011;18837;46.832;16.838;2022-10-23T14:26:27;3.37;;;3.07;;
32365;SDS011;18837;46.832;16.838;2022-10-23T14:28:54;3.43;;;3.13;;
32365;SDS011;18837;46.832;16.838;2022-10-23T14:31:21;3.37;;;3.07;;
32365;SDS011;18837;46.832;16.838;2022-10-23T14:33:58;4.00;;;3.60;;
32365;SDS011;18837;46.832;16.838;2022-10-23T14:36:37;3.40;;;3.10;;
32365;SDS011;18837;46.832;16.838;2022-10-23T14:39:03;3.10;;;2.80;;
32365;SDS011;18837;46.832;16.838;2022-10-23T14:41:29;2.93;;;2.73;;
32365;SDS011;18837;46.832;16.838;2022-10-23T14:43:54;3.67;;;3.27;;
32365;SDS011;18837;46.832;16.838;2022-10-23T14:46:21;3.70;;;3.00;;
32365;SDS011;18837;46.832;16.838;2022-10-23T14:48:48;3.63;;;2.90;;
32365;SDS011;18837;46.832;16.838;2022-10-23T14:51:18;3.30;;;3.00;;
32365;SDS011;18837;46.832;16.838;2022-10-23T14:53:55;5.27;;;4.37;;
32365;SDS011;18837;46.832;16.838;2022-10-23T14:56:25;5.27;;;4.20;;
32365;SDS011;18837;46.832;16.838;2022-10-23T14:58:51;4.93;;;3.40;;
32365;SDS011;18837;46.832;16.838;2022-10-23T15:01:17;7.13;;;4.10;;
32365;SDS011;18837;46.832;16.838;2022-10-23T15:03:43;4.10;;;3.70;;
32365;SDS011;18837;46.832;16.838;2022-10-23T15:06:15;4.97;;;3.30;;
32365;SDS011;18837;46.832;16.838;2022-10-23T15:08:42;5.43;;;4.00;;
32365;SDS011;18837;46.832;16.838;2022-10-23T15:11:08;4.60;;;3.60;;
32365;SDS011;18837;46.832;16.838;2022-10-23T15:13:34;4.97;;;3.73;;
32365;SDS011;18837;46.832;16.838;2022-10-23T15:16:04;5.13;;;3.57;;
32365;SDS011;18837;46.832;16.838;2022-10-23T15:18:31;4.53;;;3.83;;
32365;SDS011;18837;46.832;16.838;2022-10-23T15:20:58;4.30;;;3.43;;
32365;SDS011;18837;46.832;16.838;2022-10-23T15:23:24;5.77;;;3.63;;
32365;SDS011;18837;46.832;16.838;2022-10-23T15:25:57;5.17;;;3.33;;
32365;SDS011;18837;46.832;16.838;2022-10-23T15:28:25;4.07;;;3.47;;
32365;SDS011;18837;46.832;16.838;2022-10-23T15:30:51;4.43;;;3.53;;
32365;SDS011;18837;46.832;16.838;2022-10-23T15:33:17;4.00;;;3.60;;
32365;SDS011;18837;46.832;16.838;2022-10-23T15:35:43;4.17;;;3.77;;
32365;SDS011;18837;46.832;16.838;2022-10-23T15:38:08;3.83;;;3.43;;
32365;SDS011;18837;46.832;16.838;2022-10-23T15:40:37;5.37;;;4.03;;
32365;SDS011;18837;46.832;16.838;2022-10-23T15:43:03;3.60;;;3.30;;
32365;SDS011;18837;46.832;16.838;2022-10-23T15:45:29;3.70;;;3.33;;
32365;SDS011;18837;46.832;16.838;2022-10-23T15:47:55;3.70;;;3.17;;
32365;SDS011;18837;46.832;16.838;2022-10-23T15:50:22;4.00;;;3.33;;
32365;SDS011;18837;46.832;16.838;2022-10-23T15:52:48;3.53;;;3.23;;
32365;SDS011;18837;46.832;16.838;2022-10-23T15:55:15;4.00;;;3.60;;
32365;SDS011;18837;46.832;16.838;2022-10-23T15:57:41;3.50;;;3.20;;
32365;SDS011;18837;46.832;16.838;2022-10-23T16:00:16;4.33;;;3.23;;
32365;SDS011;18837;46.832;16.838;2022-10-23T16:02:42;4.03;;;3.13;;
32365;SDS011;18837;46.832;16.838;2022-10-23T16:05:08;3.97;;;3.33;;
32365;SDS011;18837;46.832;16.838;2022-10-23T16:07:34;3.57;;;3.20;;
32365;SDS011;18837;46.832;16.838;2022-10-23T16:10:00;3.93;;;3.53;;
32365;SDS011;18837;46.832;16.838;2022-10-23T16:12:26;3.40;;;3.10;;
32365;SDS011;18837;46.832;16.838;2022-10-23T16:14:52;4.03;;;3.50;;
32365;SDS011;18837;46.832;16.838;2022-10-23T16:20:18;3.83;;;3.23;;
32365;SDS011;18837;46.832;16.838;2022-10-23T16:22:45;3.40;;;3.10;;
32365;SDS011;18837;46.832;16.838;2022-10-23T16:25:11;3.63;;;3.20;;
32365;SDS011;18837;46.832;16.838;2022-10-23T16:27:37;3.60;;;3.30;;
32365;SDS011;18837;46.832;16.838;2022-10-23T16:30:03;4.40;;;4.00;;
32365;SDS011;18837;46.832;16.838;2022-10-23T16:32:32;4.20;;;3.77;;
32365;SDS011;18837;46.832;16.838;2022-10-23T16:35:04;4.23;;;3.80;;
32365;SDS011;18837;46.832;16.838;2022-10-23T16:37:30;3.83;;;3.23;;
32365;SDS011;18837;46.832;16.838;2022-10-23T16:39:57;5.00;;;3.80;;
32365;SDS011;18837;46.832;16.838;2022-10-23T16:42:23;4.27;;;3.57;;
32365;SDS011;18837;46.832;16.838;2022-10-23T16:44:50;4.97;;;3.77;;
32365;SDS011;18837;46.832;16.838;2022-10-23T16:47:16;5.03;;;3.70;;
32365;SDS011;18837;46.832;16.838;2022-10-23T16:52:33;4.33;;;3.90;;
32365;SDS011;18837;46.832;16.838;2022-10-23T16:55:00;5.73;;;4.60;;
32365;SDS011;18837;46.832;16.838;2022-10-23T16:57:26;6.00;;;4.67;;
32365;SDS011;18837;46.832;16.838;2022-10-23T16:59:52;5.63;;;4.70;;
32365;SDS011;18837;46.832;16.838;2022-10-23T17:02:18;5.00;;;4.30;;
32365;SDS011;18837;46.832;16.838;2022-10-23T17:04:44;5.20;;;4.07;;
32365;SDS011;18837;46.832;16.838;2022-10-23T17:07:10;4.77;;;4.20;;
32365;SDS011;18837;46.832;16.838;2022-10-23T17:09:44;4.73;;;4.23;;
32365;SDS011;18837;46.832;16.838;2022-10-23T17:12:13;4.93;;;4.33;;
32365;SDS011;18837;46.832;16.838;2022-10-23T17:14:40;4.97;;;4.07;;
32365;SDS011;18837;46.832;16.838;2022-10-23T17:17:06;6.30;;;4.67;;
32365;SDS011;18837;46.832;16.838;2022-10-23T17:19:33;4.23;;;3.83;;
32365;SDS011;18837;46.832;16.838;2022-10-23T17:22:00;7.97;;;5.80;;
32365;SDS011;18837;46.832;16.838;2022-10-23T17:24:29;10.97;;;5.80;;
32365;SDS011;18837;46.832;16.838;2022-10-23T17:27:10;9.27;;;5.23;;